Time;durP1;ratioP1;P1;durP2;ratioP2;P2;SDS_P1;SDS_P2;PMS_P1;PMS_P2;Temp;Humidity;BMP_temperature;BMP_pressure;BME280_temperature;BME280_humidity;BME280_pressure;Samples;Min_cycle;Max_cycle;Signal;HPM_P1;HPM_P2
2021/06/15 00:00:43;;;;;;;5.17;3.97;;;18.60;99.90;;;;;;5055553;28;20626;-71
2021/06/15 00:03:09;;;;;;;6.93;4.30;;;18.50;99.90;;;;;;5063624;28;20185;-70
2021/06/15 00:05:34;;;;;;;4.23;3.73;;;18.50;99.90;;;;;;5053918;28;20179;-71
2021/06/15 00:08:00;;;;;;;3.60;3.40;;;18.50;99.90;;;;;;5062218;28;20202;-72
2021/06/15 00:10:26;;;;;;;3.83;3.53;;;18.50;99.90;;;;;;5058363;28;20246;-71
2021/06/15 00:12:54;;;;;;;5.83;4.53;;;18.40;99.90;;;;;;5052169;28;20187;-70
2021/06/15 00:15:20;;;;;;;4.70;4.20;;;18.40;99.90;;;;;;5063360;28;20939;-69
2021/06/15 00:17:47;;;;;;;4.53;4.13;;;18.30;99.90;;;;;;5053593;28;21010;-67
2021/06/15 00:20:13;;;;;;;4.50;4.10;;;18.30;99.90;;;;;;5062881;28;20462;-70
2021/06/15 00:22:39;;;;;;;3.83;3.53;;;18.30;99.90;;;;;;5058505;28;20984;-71
2021/06/15 00:25:06;;;;;;;3.90;3.60;;;18.20;99.90;;;;;;5058155;28;20780;-70
2021/06/15 00:27:31;;;;;;;4.33;3.90;;;18.10;99.90;;;;;;5054807;28;20481;-70
2021/06/15 00:29:57;;;;;;;4.20;3.90;;;18.10;99.90;;;;;;5066336;28;20924;-70
2021/06/15 00:32:23;;;;;;;4.00;3.70;;;18.00;99.90;;;;;;5057795;28;20181;-70
2021/06/15 00:34:48;;;;;;;4.80;4.10;;;18.00;99.90;;;;;;5065570;28;20556;-68
2021/06/15 00:37:14;;;;;;;4.13;3.73;;;18.00;99.90;;;;;;5058271;28;20209;-69
2021/06/15 00:39:40;;;;;;;4.53;4.23;;;18.00;99.90;;;;;;5057802;28;20206;-71
2021/06/15 00:42:06;;;;;;;7.17;3.97;;;17.90;99.90;;;;;;5051313;28;20186;-70
2021/06/15 00:44:33;;;;;;;4.50;4.10;;;17.90;99.90;;;;;;5062203;28;20182;-70
2021/06/15 00:46:59;;;;;;;4.07;3.67;;;17.90;99.90;;;;;;5050617;28;20443;-70
2021/06/15 00:49:27;;;;;;;4.10;3.80;;;17.90;99.90;;;;;;5053867;28;20408;-70
2021/06/15 00:51:54;;;;;;;5.20;3.97;;;17.90;99.90;;;;;;5060237;28;20173;-71
2021/06/15 00:54:20;;;;;;;5.77;4.50;;;17.90;99.90;;;;;;5057768;28;20971;-70
2021/06/15 00:56:46;;;;;;;5.87;4.10;;;17.80;99.90;;;;;;5061600;28;20487;-69
2021/06/15 00:59:11;;;;;;;4.50;4.10;;;17.80;99.90;;;;;;5057151;28;20268;-70
2021/06/15 01:01:37;;;;;;;4.57;3.87;;;17.70;99.90;;;;;;5059909;28;20183;-70
2021/06/15 01:04:03;;;;;;;4.40;4.00;;;17.80;99.90;;;;;;5059222;28;20265;-70
2021/06/15 01:06:44;;;;;;;4.17;3.87;;;17.70;99.90;;;;;;5052524;28;20188;-70
2021/06/15 01:09:22;;;;;;;4.13;3.80;;;17.60;99.90;;;;;;5058095;28;20489;-71
2021/06/15 01:11:53;;;;;;;4.40;4.00;;;17.60;99.90;;;;;;5060989;28;20511;-71
2021/06/15 01:15:03;;;;;;;4.63;4.23;;;17.50;99.90;;;;;;5057607;28;20425;-70
2021/06/15 01:17:39;;;;;;;4.30;3.90;;;17.50;99.90;;;;;;5071928;28;20834;-71
2021/06/15 01:20:06;;;;;;;5.00;3.93;;;17.50;99.90;;;;;;5053125;28;20496;-70
2021/06/15 01:22:44;;;;;;;4.20;3.90;;;17.40;99.90;;;;;;5064711;28;20952;-70
2021/06/15 01:25:51;;;;;;;5.77;4.10;;;17.40;99.90;;;;;;5055957;28;20420;-70
2021/06/15 01:28:39;;;;;;;4.47;4.07;;;17.40;99.90;;;;;;5062688;28;20467;-68
2021/06/15 01:31:26;;;;;;;4.53;4.23;;;17.40;99.90;;;;;;5060252;28;20412;-70
2021/06/15 01:33:59;;;;;;;4.33;4.00;;;17.30;99.90;;;;;;5054398;28;20781;-71
2021/06/15 01:36:32;;;;;;;4.53;4.00;;;17.20;99.90;;;;;;5059257;28;20556;-70
2021/06/15 01:39:05;;;;;;;4.30;3.90;;;17.30;99.90;;;;;;5054830;28;20425;-71
2021/06/15 01:41:35;;;;;;;4.60;4.30;;;17.20;99.90;;;;;;5054197;28;20910;-70
2021/06/15 01:44:09;;;;;;;4.37;3.97;;;17.20;99.90;;;;;;5062785;28;20427;-70
2021/06/15 01:46:44;;;;;;;5.00;4.50;;;17.20;99.90;;;;;;5058140;28;20774;-70
2021/06/15 01:49:16;;;;;;;4.53;4.13;;;17.10;99.90;;;;;;5056046;28;20408;-71
2021/06/15 01:51:44;;;;;;;4.60;4.20;;;17.10;99.90;;;;;;5056152;28;20788;-71
2021/06/15 01:54:15;;;;;;;3.93;3.60;;;17.10;99.90;;;;;;5057527;28;20424;-71
2021/06/15 01:56:42;;;;;;;4.83;4.40;;;17.10;99.90;;;;;;5056878;28;20511;-70
2021/06/15 01:59:10;;;;;;;4.13;3.73;;;17.10;99.90;;;;;;5047424;28;20424;-71
2021/06/15 02:01:39;;;;;;;4.23;3.93;;;17.10;99.90;;;;;;5056955;28;20504;-70
2021/06/15 02:04:05;;;;;;;4.90;4.50;;;17.10;99.90;;;;;;5060091;28;20412;-70
2021/06/15 02:06:33;;;;;;;5.97;4.10;;;17.00;99.90;;;;;;5053679;28;20417;-70
2021/06/15 02:09:02;;;;;;;4.53;4.13;;;17.00;99.90;;;;;;5050169;28;20937;-71
2021/06/15 02:11:30;;;;;;;5.43;4.03;;;17.00;99.90;;;;;;5054804;28;20509;-69
2021/06/15 02:14:01;;;;;;;4.13;3.83;;;16.90;99.90;;;;;;5054194;28;20482;-71
2021/06/15 02:16:28;;;;;;;3.93;3.63;;;16.90;99.90;;;;;;5054903;28;20523;-70
2021/06/15 02:18:56;;;;;;;4.70;4.30;;;16.90;99.90;;;;;;5058639;28;20436;-71
2021/06/15 02:21:22;;;;;;;4.90;4.30;;;16.90;99.90;;;;;;5061914;28;20546;-70
2021/06/15 02:23:50;;;;;;;4.20;3.80;;;16.90;99.90;;;;;;5063918;28;20710;-69
2021/06/15 02:26:19;;;;;;;4.50;4.10;;;16.80;99.90;;;;;;5063401;28;20455;-70
2021/06/15 02:28:45;;;;;;;4.57;4.17;;;16.80;99.90;;;;;;5054192;28;20479;-70
2021/06/15 02:31:24;;;;;;;5.30;4.73;;;16.80;99.90;;;;;;5062950;28;20427;-70
2021/06/15 02:33:53;;;;;;;4.57;4.17;;;16.80;99.90;;;;;;5058572;28;20452;-69
2021/06/15 02:36:31;;;;;;;4.87;4.37;;;16.70;99.90;;;;;;5068836;28;20423;-70
2021/06/15 02:39:07;;;;;;;4.03;3.57;;;16.60;99.90;;;;;;5064975;28;20420;-71
2021/06/15 02:41:36;;;;;;;5.03;4.63;;;16.60;99.90;;;;;;5062155;28;20531;-71
2021/06/15 02:44:04;;;;;;;6.30;4.43;;;16.60;99.90;;;;;;5070296;28;20420;-70
2021/06/15 02:46:33;;;;;;;6.60;5.20;;;16.60;99.90;;;;;;5060551;28;20420;-70
2021/06/15 02:49:02;;;;;;;4.73;4.30;;;16.50;99.90;;;;;;5066019;28;20452;-70
2021/06/15 02:51:33;;;;;;;5.03;4.63;;;16.50;99.90;;;;;;5063372;28;20518;-71
2021/06/15 02:54:12;;;;;;;7.37;4.30;;;16.50;99.90;;;;;;5068060;28;20431;-70
2021/06/15 02:56:45;;;;;;;5.13;4.73;;;16.50;99.90;;;;;;5056782;28;20928;-70
2021/06/15 02:59:11;;;;;;;4.63;4.23;;;16.50;99.90;;;;;;5060288;28;20466;-69
2021/06/15 03:01:37;;;;;;;5.40;4.47;;;16.50;99.90;;;;;;5061682;28;20475;-69
2021/06/15 03:04:03;;;;;;;6.93;5.00;;;16.50;99.90;;;;;;5060399;28;20212;-70
2021/06/15 03:06:29;;;;;;;4.70;4.30;;;16.50;99.90;;;;;;5060441;28;20182;-70
2021/06/15 03:08:55;;;;;;;5.70;4.73;;;16.50;99.90;;;;;;5059155;28;20435;-70
2021/06/15 03:11:24;;;;;;;5.27;4.87;;;16.40;99.90;;;;;;5063130;28;20241;-68
2021/06/15 03:14:11;;;;;;;5.37;4.97;;;16.40;99.90;;;;;;5055337;28;20482;-69
2021/06/15 03:16:38;;;;;;;5.80;5.00;;;16.30;99.90;;;;;;5057311;28;20795;-69
2021/06/15 03:19:21;;;;;;;5.27;4.77;;;16.30;99.90;;;;;;5058457;28;20988;-69
2021/06/15 03:21:53;;;;;;;5.43;4.93;;;16.30;99.90;;;;;;5060392;28;20462;-69
2021/06/15 03:24:24;;;;;;;5.90;5.40;;;16.30;99.90;;;;;;5060141;28;20451;-70
2021/06/15 03:26:58;;;;;;;5.80;5.27;;;16.30;99.90;;;;;;5060163;28;20431;-70
2021/06/15 03:29:25;;;;;;;5.50;5.10;;;16.30;99.90;;;;;;5056391;28;20417;-69
2021/06/15 03:31:59;;;;;;;5.30;4.87;;;16.30;99.90;;;;;;5056112;28;20913;-70
2021/06/15 03:34:29;;;;;;;5.30;4.90;;;16.30;99.90;;;;;;5060474;28;20419;-68
2021/06/15 03:36:57;;;;;;;6.20;5.33;;;16.20;99.90;;;;;;5056441;28;20470;-69
2021/06/15 03:39:24;;;;;;;4.73;4.33;;;16.30;99.90;;;;;;5064594;28;20447;-70
2021/06/15 03:41:53;;;;;;;5.60;5.10;;;16.30;99.90;;;;;;5054870;28;20428;-70
2021/06/15 03:44:20;;;;;;;5.67;5.27;;;16.30;99.90;;;;;;5062451;28;20469;-70
2021/06/15 03:46:49;;;;;;;6.20;5.70;;;16.20;99.90;;;;;;5063521;28;20490;-70
2021/06/15 03:49:16;;;;;;;6.00;5.43;;;16.30;99.90;;;;;;5057638;28;20986;-69
2021/06/15 03:51:50;;;;;;;6.63;5.60;;;16.30;99.90;;;;;;5059853;28;20479;-70
2021/06/15 03:54:17;;;;;;;7.07;6.37;;;16.30;99.90;;;;;;5059661;28;20512;-69
2021/06/15 03:56:48;;;;;;;6.40;5.80;;;16.40;99.90;;;;;;5062448;28;20444;-69
2021/06/15 03:59:21;;;;;;;8.23;5.77;;;16.40;99.90;;;;;;5058949;28;20766;-69
2021/06/15 04:01:50;;;;;;;5.73;5.33;;;16.40;99.90;;;;;;5061783;28;20945;-69
2021/06/15 04:04:17;;;;;;;7.20;5.70;;;16.40;99.90;;;;;;5058383;28;20488;-69
2021/06/15 04:06:49;;;;;;;5.73;5.33;;;16.40;99.90;;;;;;5058833;28;20967;-69
2021/06/15 04:09:18;;;;;;;6.20;5.70;;;16.50;99.90;;;;;;5058793;28;20932;-69
2021/06/15 04:11:45;;;;;;;4.70;4.30;;;16.60;99.90;;;;;;5058866;28;20416;-69
2021/06/15 04:14:12;;;;;;;6.00;5.30;;;16.60;99.90;;;;;;5059998;28;20424;-67
2021/06/15 04:16:39;;;;;;;6.30;5.77;;;16.70;99.90;;;;;;5068202;28;20427;-68
2021/06/15 04:19:14;;;;;;;6.00;5.50;;;16.70;99.90;;;;;;5059234;28;20413;-69
2021/06/15 04:21:44;;;;;;;6.00;5.50;;;16.80;99.90;;;;;;5059655;28;20452;-67
2021/06/15 04:24:14;;;;;;;6.00;5.50;;;16.90;99.90;;;;;;5058042;28;20408;-68
2021/06/15 04:26:40;;;;;;;6.00;5.40;;;16.90;99.90;;;;;;5061827;28;20941;-70
2021/06/15 04:29:06;;;;;;;6.70;6.10;;;17.00;99.90;;;;;;5068514;28;20427;-72
2021/06/15 04:31:35;;;;;;;5.53;5.00;;;17.00;99.90;;;;;;5058957;28;20874;-71
2021/06/15 04:34:03;;;;;;;6.00;5.50;;;17.10;99.90;;;;;;5064648;28;20530;-71
2021/06/15 04:36:31;;;;;;;6.60;6.10;;;17.20;99.90;;;;;;5064142;28;20476;-71
2021/06/15 04:39:06;;;;;;;6.27;5.10;;;17.20;99.90;;;;;;5058532;28;20452;-70
2021/06/15 04:41:44;;;;;;;6.30;5.80;;;17.30;99.90;;;;;;5051958;28;20890;-71
2021/06/15 04:44:16;;;;;;;6.37;5.77;;;17.40;99.90;;;;;;5055886;28;20956;-71
2021/06/15 04:47:27;;;;;;;8.30;5.63;;;17.40;99.90;;;;;;5065956;28;20455;-71
2021/06/15 04:50:12;;;;;;;6.60;5.87;;;17.50;99.90;;;;;;5057839;28;20428;-71
2021/06/15 04:52:38;;;;;;;5.93;5.47;;;17.60;99.90;;;;;;5054935;28;20982;-71
2021/06/15 04:55:06;;;;;;;7.27;6.37;;;17.70;99.90;;;;;;5063355;28;20940;-71
2021/06/15 04:57:41;;;;;;;6.60;6.10;;;17.70;99.90;;;;;;5055530;28;20448;-71
2021/06/15 05:00:07;;;;;;;5.90;5.40;;;17.70;99.90;;;;;;5054307;28;20508;-70
2021/06/15 05:02:34;;;;;;;7.50;6.50;;;17.80;99.90;;;;;;5058552;28;20459;-71
2021/06/15 05:05:01;;;;;;;6.90;6.20;;;17.90;99.90;;;;;;5066043;28;20904;-71
2021/06/15 05:07:27;;;;;;;6.93;6.33;;;18.00;99.90;;;;;;5061529;28;20468;-78
2021/06/15 05:09:59;;;;;;;7.50;6.33;;;18.10;99.90;;;;;;5059087;28;20436;-79
2021/06/15 05:12:25;;;;;;;8.80;6.63;;;18.30;99.90;;;;;;5069451;28;20429;-72
2021/06/15 05:14:51;;;;;;;6.73;6.17;;;18.40;99.90;;;;;;5058274;28;20944;-78
2021/06/15 05:17:21;;;;;;;8.00;7.30;;;18.40;99.90;;;;;;5057759;28;20458;-78
2021/06/15 05:19:47;;;;;;;7.53;6.70;;;18.60;99.90;;;;;;5068524;28;20467;-78
2021/06/15 05:22:30;;;;;;;8.03;7.33;;;18.70;99.90;;;;;;5064562;28;20958;-79
2021/06/15 05:24:58;;;;;;;9.20;8.40;;;18.80;99.90;;;;;;5060980;28;20541;-77
2021/06/15 05:27:29;;;;;;;8.23;7.53;;;18.90;99.90;;;;;;5063464;28;20460;-78
2021/06/15 05:29:55;;;;;;;8.60;7.90;;;18.90;99.90;;;;;;5067120;28;20501;-78
2021/06/15 05:32:21;;;;;;;11.13;7.80;;;19.00;99.90;;;;;;5054538;28;20781;-79
2021/06/15 05:34:47;;;;;;;7.97;7.30;;;19.10;99.90;;;;;;5057587;28;20181;-78
2021/06/15 05:37:14;;;;;;;8.10;7.37;;;19.20;99.90;;;;;;5059707;28;20227;-77
2021/06/15 05:39:39;;;;;;;8.50;7.80;;;19.30;99.90;;;;;;5053843;28;20502;-80
2021/06/15 05:42:07;;;;;;;8.60;7.67;;;19.40;99.90;;;;;;5060788;28;20409;-78
2021/06/15 05:44:33;;;;;;;9.30;8.27;;;19.50;99.90;;;;;;5056577;28;20189;-78
2021/06/15 05:46:59;;;;;;;8.93;8.13;;;19.60;99.90;;;;;;5058586;28;20509;-78
2021/06/15 05:49:25;;;;;;;13.23;8.90;;;19.70;99.90;;;;;;5063437;28;20496;-79
2021/06/15 05:51:59;;;;;;;11.83;8.97;;;19.80;99.90;;;;;;5062518;28;20174;-78
2021/06/15 05:54:25;;;;;;;10.17;9.23;;;19.90;99.90;;;;;;5064840;28;20187;-78
2021/06/15 05:56:51;;;;;;;10.13;9.13;;;20.00;99.90;;;;;;5063190;28;20424;-79
2021/06/15 05:59:16;;;;;;;9.83;8.00;;;20.10;99.90;;;;;;5055390;28;20954;-78
2021/06/15 06:01:42;;;;;;;11.87;8.90;;;20.20;99.90;;;;;;5058995;28;20206;-75
2021/06/15 06:04:10;;;;;;;9.67;8.77;;;20.40;99.90;;;;;;5060385;28;20261;-78
2021/06/15 06:09:20;;;;;;;8.60;7.90;;;20.50;99.90;;;;;;5064735;28;20400;-77
2021/06/15 06:11:46;;;;;;;21.37;8.60;;;20.70;99.90;;;;;;5068831;28;20424;-78
2021/06/15 06:14:12;;;;;;;11.30;8.47;;;20.80;99.90;;;;;;5062272;28;20196;-78
2021/06/15 06:16:42;;;;;;;11.77;8.67;;;20.90;99.90;;;;;;5069128;28;20268;-78
2021/06/15 06:19:07;;;;;;;9.50;7.77;;;21.00;99.90;;;;;;5062258;28;20448;-78
2021/06/15 06:21:35;;;;;;;9.67;8.73;;;21.00;99.90;;;;;;5064642;28;20488;-77
2021/06/15 06:24:02;;;;;;;11.03;9.13;;;21.20;99.90;;;;;;5055737;28;20646;-76
2021/06/15 06:26:28;;;;;;;8.00;7.20;;;21.30;99.90;;;;;;5064257;28;20432;-78
2021/06/15 06:28:54;;;;;;;9.20;7.73;;;21.30;99.90;;;;;;5057743;28;20440;-78
2021/06/15 06:31:20;;;;;;;10.37;8.20;;;21.40;99.90;;;;;;5061174;28;20968;-78
2021/06/15 06:33:46;;;;;;;9.40;8.43;;;21.50;99.90;;;;;;5066664;28;20574;-78
2021/06/15 06:36:12;;;;;;;10.70;7.63;;;21.60;99.90;;;;;;5063882;28;20194;-78
2021/06/15 06:38:38;;;;;;;11.70;8.70;;;21.70;99.90;;;;;;5064662;28;20480;-78
2021/06/15 06:41:04;;;;;;;18.57;9.20;;;21.90;99.90;;;;;;5057177;28;20988;-79
2021/06/15 06:43:29;;;;;;;9.43;8.43;;;21.80;99.90;;;;;;5060681;28;20190;-78
2021/06/15 06:45:55;;;;;;;12.17;9.60;;;21.90;99.90;;;;;;5071148;28;20186;-79
2021/06/15 06:48:21;;;;;;;11.63;8.40;;;22.10;99.90;;;;;;5064650;28;21140;-78
2021/06/15 06:50:46;;;;;;;12.40;8.07;;;22.10;99.90;;;;;;5065256;28;20186;-78
2021/06/15 06:53:12;;;;;;;8.67;7.57;;;22.10;99.90;;;;;;5062240;28;20193;-78
2021/06/15 06:55:38;;;;;;;9.07;7.80;;;22.20;99.90;;;;;;5054569;28;20190;-79
2021/06/15 06:58:05;;;;;;;8.80;7.03;;;22.40;99.90;;;;;;5061886;28;20839;-78
2021/06/15 07:00:30;;;;;;;7.07;6.30;;;22.60;99.90;;;;;;5061256;28;20247;-78
2021/06/15 07:02:56;;;;;;;6.80;6.30;;;22.70;99.90;;;;;;5057801;28;20424;-78
2021/06/15 07:05:22;;;;;;;11.40;8.07;;;22.90;99.90;;;;;;5058829;28;20186;-78
2021/06/15 07:07:48;;;;;;;8.63;6.13;;;22.90;99.90;;;;;;5055029;28;20259;-78
2021/06/15 07:10:14;;;;;;;7.03;6.33;;;23.00;99.90;;;;;;5059116;28;20195;-78
2021/06/15 07:12:40;;;;;;;9.13;6.20;;;23.10;99.90;;;;;;5069419;28;20519;-78
2021/06/15 07:15:06;;;;;;;6.37;5.80;;;23.10;99.90;;;;;;5060698;28;20201;-78
2021/06/15 07:17:32;;;;;;;9.80;5.80;;;23.10;99.90;;;;;;5061629;28;20225;-78
2021/06/15 07:19:57;;;;;;;8.60;6.20;;;23.30;99.90;;;;;;5056956;28;20465;-78
2021/06/15 07:22:23;;;;;;;6.20;5.60;;;23.50;99.90;;;;;;5068040;28;20186;-76
2021/06/15 07:24:49;;;;;;;6.10;5.60;;;23.70;99.90;;;;;;5060745;28;20238;-78
2021/06/15 07:27:14;;;;;;;6.13;5.43;;;23.90;99.90;;;;;;5054110;28;20222;-78
2021/06/15 07:29:40;;;;;;;7.83;5.00;;;23.90;99.90;;;;;;5058476;28;20182;-78
2021/06/15 07:32:06;;;;;;;6.00;5.40;;;24.10;99.90;;;;;;5059221;28;20216;-78
2021/06/15 07:34:31;;;;;;;6.87;5.17;;;24.20;99.90;;;;;;5068627;28;20527;-77
2021/06/15 07:36:57;;;;;;;6.20;5.60;;;24.40;99.90;;;;;;5056612;28;20483;-79
2021/06/15 07:39:23;;;;;;;7.10;5.40;;;24.50;99.90;;;;;;5057702;28;20562;-77
2021/06/15 07:41:49;;;;;;;6.80;6.17;;;24.40;99.90;;;;;;5067622;28;20589;-79
2021/06/15 07:44:15;;;;;;;6.67;5.30;;;24.50;99.90;;;;;;5062217;28;20603;-78
2021/06/15 07:46:41;;;;;;;6.47;5.83;;;24.50;99.90;;;;;;5061848;28;20625;-78
2021/06/15 07:49:06;;;;;;;6.07;5.30;;;24.70;99.90;;;;;;5060244;28;20193;-77
2021/06/15 07:51:32;;;;;;;7.90;5.10;;;24.70;99.90;;;;;;5062517;28;20323;-78
2021/06/15 07:53:58;;;;;;;5.50;5.00;;;24.80;99.90;;;;;;5063231;28;20190;-77
2021/06/15 07:56:24;;;;;;;6.50;5.27;;;25.00;99.90;;;;;;5076170;28;20192;-77
2021/06/15 07:58:50;;;;;;;5.27;4.77;;;25.00;99.90;;;;;;5074175;28;20185;-77
2021/06/15 08:01:16;;;;;;;6.80;4.20;;;25.20;99.90;;;;;;5073050;28;20468;-77
2021/06/15 08:03:42;;;;;;;7.63;4.93;;;25.40;99.90;;;;;;5064738;28;20494;-78
2021/06/15 08:06:07;;;;;;;5.23;4.63;;;25.50;99.90;;;;;;5075975;28;20185;-77
2021/06/15 08:08:33;;;;;;;5.50;5.10;;;25.60;99.90;;;;;;5061375;28;20955;-77
2021/06/15 08:10:59;;;;;;;6.60;5.73;;;25.60;99.90;;;;;;5066513;28;20193;-77
2021/06/15 08:13:25;;;;;;;5.10;4.57;;;25.70;99.90;;;;;;5068036;28;20183;-78
2021/06/15 08:15:51;;;;;;;4.57;4.17;;;25.80;99.90;;;;;;5053764;28;20966;-78
2021/06/15 08:18:19;;;;;;;4.70;4.37;;;25.80;99.90;;;;;;5058547;28;20686;-78
2021/06/15 08:20:45;;;;;;;4.80;4.40;;;25.80;99.90;;;;;;5070117;28;20202;-78
2021/06/15 08:23:11;;;;;;;5.07;4.27;;;25.80;99.90;;;;;;5079749;28;20408;-78
2021/06/15 08:25:37;;;;;;;4.57;4.17;;;25.90;99.90;;;;;;5077260;28;20441;-77
2021/06/15 08:28:06;;;;;;;5.00;4.50;;;25.80;99.90;;;;;;5069539;28;20217;-78
2021/06/15 08:30:32;;;;;;;5.03;4.60;;;25.70;99.90;;;;;;5062981;28;20290;-77
2021/06/15 08:32:58;;;;;;;5.93;4.80;;;25.60;99.90;;;;;;5066849;28;20853;-78
2021/06/15 08:35:24;;;;;;;5.63;4.77;;;25.60;99.90;;;;;;5071045;28;20512;-77
2021/06/15 08:37:50;;;;;;;4.80;4.50;;;25.70;99.90;;;;;;5068089;28;20300;-78
2021/06/15 08:40:16;;;;;;;5.43;5.03;;;25.90;99.90;;;;;;5058158;28;20918;-78
2021/06/15 08:42:42;;;;;;;5.27;4.27;;;25.90;99.90;;;;;;5058753;28;20188;-77
2021/06/15 08:45:09;;;;;;;4.87;4.33;;;26.00;99.90;;;;;;5057221;28;20426;-77
2021/06/15 08:47:40;;;;;;;5.93;5.10;;;26.10;99.90;;;;;;5059087;28;20445;-77
2021/06/15 08:50:08;;;;;;;5.03;4.63;;;26.30;99.90;;;;;;5057169;28;20461;-78
2021/06/15 08:52:35;;;;;;;5.40;4.63;;;26.30;99.90;;;;;;5065475;28;20928;-77
2021/06/15 08:55:01;;;;;;;4.80;4.50;;;26.50;99.90;;;;;;5057909;28;20420;-77
2021/06/15 08:57:28;;;;;;;5.03;4.53;;;26.60;99.90;;;;;;5057963;28;20471;-77
2021/06/15 08:59:56;;;;;;;6.27;5.70;;;26.60;99.90;;;;;;5057548;28;20469;-77
2021/06/15 09:02:21;;;;;;;6.20;4.63;;;26.60;99.90;;;;;;5051614;28;20456;-77
2021/06/15 09:04:47;;;;;;;5.20;4.70;;;26.70;99.90;;;;;;5054725;28;20500;-77
2021/06/15 09:07:13;;;;;;;6.13;4.70;;;26.70;99.90;;;;;;5056444;28;20290;-78
2021/06/15 09:09:44;;;;;;;5.53;5.07;;;26.60;99.90;;;;;;5058800;28;20177;-77
2021/06/15 09:12:20;;;;;;;5.40;5.07;;;26.60;99.90;;;;;;5057758;28;20279;-77
2021/06/15 09:14:47;;;;;;;6.00;4.90;;;26.70;99.90;;;;;;5055590;28;20419;-78
2021/06/15 09:17:32;;;;;;;5.10;4.50;;;26.60;99.90;;;;;;5064898;28;20436;-77
2021/06/15 09:20:16;;;;;;;5.13;4.60;;;26.50;99.90;;;;;;5061298;28;20823;-77
2021/06/15 09:22:42;;;;;;;5.87;4.20;;;26.60;99.90;;;;;;5055003;28;20416;-77
2021/06/15 09:25:11;;;;;;;5.60;4.80;;;26.70;99.90;;;;;;5062053;28;20940;-78
2021/06/15 09:27:38;;;;;;;4.43;4.13;;;26.60;99.90;;;;;;5061372;28;20222;-78
2021/06/15 09:30:12;;;;;;;4.80;4.13;;;26.60;99.90;;;;;;5057755;28;20467;-78
2021/06/15 09:32:41;;;;;;;4.43;4.03;;;26.70;99.90;;;;;;5064615;28;20413;-76
2021/06/15 09:35:25;;;;;;;4.40;4.00;;;26.70;99.90;;;;;;5053039;28;20440;-78
2021/06/15 09:37:54;;;;;;;5.33;4.70;;;26.70;99.90;;;;;;5068615;28;20448;-78
2021/06/15 09:40:36;;;;;;;5.13;4.73;;;26.70;99.90;;;;;;5059572;28;20452;-77
2021/06/15 09:43:09;;;;;;;5.00;4.60;;;26.80;99.90;;;;;;5060078;28;20519;-78
2021/06/15 09:45:48;;;;;;;4.70;4.30;;;26.80;99.90;;;;;;5066066;28;20427;-77
2021/06/15 09:48:35;;;;;;;4.77;4.20;;;26.90;99.90;;;;;;5063370;28;20532;-77
2021/06/15 09:51:05;;;;;;;4.73;4.30;;;27.10;99.90;;;;;;5058820;28;20429;-78
2021/06/15 09:53:37;;;;;;;4.70;4.40;;;27.10;98.50;;;;;;5070903;28;20424;-77
2021/06/15 09:56:04;;;;;;;5.07;4.03;;;27.10;99.40;;;;;;5066840;28;20437;-76
2021/06/15 09:58:59;;;;;;;4.60;4.30;;;27.20;99.30;;;;;;5070843;28;20445;-76
2021/06/15 10:01:39;;;;;;;5.50;5.00;;;27.20;99.90;;;;;;5059298;28;20472;-76
2021/06/15 10:04:17;;;;;;;5.50;4.93;;;27.30;99.90;;;;;;5047350;28;20421;-77
2021/06/15 10:06:43;;;;;;;4.30;4.00;;;27.40;99.90;;;;;;5048069;28;20462;-78
2021/06/15 10:09:09;;;;;;;5.07;4.57;;;27.60;99.30;;;;;;5050602;28;20424;-78
2021/06/15 10:11:36;;;;;;;5.27;4.83;;;27.50;99.10;;;;;;5031175;28;20195;-76
2021/06/15 10:14:03;;;;;;;4.50;4.10;;;27.30;99.90;;;;;;5029617;28;20429;-78
2021/06/15 10:16:29;;;;;;;5.60;5.20;;;27.50;99.80;;;;;;5046542;28;20429;-76
2021/06/15 10:18:58;;;;;;;4.67;4.37;;;27.60;99.90;;;;;;5029664;28;20516;-77
2021/06/15 10:21:23;;;;;;;4.83;4.43;;;27.60;98.90;;;;;;5029180;28;20546;-77
2021/06/15 10:23:49;;;;;;;4.83;4.40;;;27.60;99.70;;;;;;5029540;28;20466;-77
2021/06/15 10:26:15;;;;;;;4.73;4.33;;;27.60;99.30;;;;;;5046219;28;20182;-77
2021/06/15 10:28:41;;;;;;;5.67;4.47;;;27.60;99.90;;;;;;5069728;22;20496;-76
2021/06/15 10:31:06;;;;;;;4.80;4.40;;;27.70;98.70;;;;;;5046482;28;20263;-76
2021/06/15 10:33:42;;;;;;;5.17;3.90;;;27.70;97.40;;;;;;5035681;28;20231;-77
2021/06/15 10:36:09;;;;;;;3.87;3.47;;;27.70;97.50;;;;;;5032952;28;20278;-76
2021/06/15 10:38:35;;;;;;;5.57;5.00;;;27.60;96.50;;;;;;5039286;28;20530;-77
2021/06/15 10:41:03;;;;;;;4.63;4.03;;;27.70;96.90;;;;;;5029419;28;20831;-76
2021/06/15 10:43:43;;;;;;;4.43;4.07;;;27.80;98.00;;;;;;5030224;28;20426;-76
2021/06/15 10:46:12;;;;;;;4.33;3.73;;;27.70;93.50;;;;;;5029894;28;20421;-76
2021/06/15 10:48:41;;;;;;;4.30;4.00;;;27.60;94.20;;;;;;5033763;28;20449;-76
2021/06/15 10:51:28;;;;;;;4.40;4.10;;;27.60;93.60;;;;;;5033719;28;20426;-77
2021/06/15 10:54:02;;;;;;;4.90;4.37;;;27.60;94.30;;;;;;5025281;28;20429;-76
2021/06/15 10:56:33;;;;;;;5.63;4.90;;;27.40;92.50;;;;;;5022728;28;20524;-74
2021/06/15 10:59:07;;;;;;;4.70;4.17;;;27.30;93.00;;;;;;5026963;28;20466;-78
2021/06/15 11:01:35;;;;;;;3.83;3.50;;;27.30;93.30;;;;;;5021830;28;20461;-74
2021/06/15 11:04:12;;;;;;;7.13;4.40;;;27.30;93.60;;;;;;5024392;28;20467;-78
2021/06/15 11:06:44;;;;;;;4.40;4.00;;;27.50;94.30;;;;;;5030343;28;20459;-77
2021/06/15 11:09:11;;;;;;;4.70;4.30;;;27.70;94.20;;;;;;5026246;28;20982;-77
2021/06/15 11:11:37;;;;;;;4.87;4.43;;;27.80;93.10;;;;;;5030008;28;20429;-77
2021/06/15 11:14:07;;;;;;;4.20;3.80;;;28.00;93.50;;;;;;5028332;28;20456;-77
2021/06/15 11:16:45;;;;;;;4.90;4.43;;;28.20;93.50;;;;;;5029118;28;20440;-77
2021/06/15 11:19:11;;;;;;;4.43;4.07;;;28.50;93.00;;;;;;5024788;28;20444;-77
2021/06/15 11:21:55;;;;;;;4.50;4.07;;;28.70;92.00;;;;;;5026867;28;20872;-76
2021/06/15 11:24:21;;;;;;;6.27;3.60;;;28.70;90.70;;;;;;5029509;28;20402;-76
2021/06/15 11:26:48;;;;;;;4.83;4.37;;;28.70;91.50;;;;;;5029837;28;20425;-77
2021/06/15 11:29:31;;;;;;;5.70;5.10;;;28.90;91.50;;;;;;5028834;28;20239;-77
2021/06/15 11:32:17;;;;;;;4.23;3.83;;;28.90;90.90;;;;;;5029772;28;20430;-76
2021/06/15 11:35:03;;;;;;;4.53;4.13;;;28.80;91.00;;;;;;5023736;28;20421;-76
2021/06/15 11:37:33;;;;;;;4.87;4.47;;;28.90;92.70;;;;;;5032837;28;20437;-77
2021/06/15 11:40:11;;;;;;;4.50;4.10;;;29.20;91.30;;;;;;5028037;28;20457;-77
2021/06/15 11:42:37;;;;;;;4.20;3.90;;;29.50;90.80;;;;;;5034464;28;20449;-75
2021/06/15 11:45:18;;;;;;;6.87;4.30;;;29.60;91.00;;;;;;5037388;28;20430;-77
2021/06/15 11:47:53;;;;;;;4.60;4.20;;;29.90;91.30;;;;;;5032278;28;20510;-77
2021/06/15 11:50:29;;;;;;;4.40;4.00;;;29.90;88.40;;;;;;5032231;28;20953;-75
2021/06/15 11:52:59;;;;;;;4.60;4.13;;;30.10;87.70;;;;;;5030455;28;20488;-76
2021/06/15 11:55:37;;;;;;;5.43;3.63;;;30.20;86.70;;;;;;5032090;28;20422;-78
2021/06/15 11:58:06;;;;;;;4.17;3.83;;;30.40;85.10;;;;;;5029515;28;20441;-76
2021/06/15 12:00:35;;;;;;;5.03;4.27;;;30.50;87.40;;;;;;5032639;28;20507;-76
2021/06/15 12:03:08;;;;;;;5.70;4.07;;;30.80;83.00;;;;;;5035942;28;20463;-77
2021/06/15 12:05:34;;;;;;;6.07;3.97;;;31.00;82.80;;;;;;5018235;28;20415;-77
2021/06/15 12:08:00;;;;;;;4.70;4.40;;;31.30;82.00;;;;;;5024278;28;20910;-77
2021/06/15 12:10:27;;;;;;;4.77;4.00;;;32.10;81.90;;;;;;5024672;28;20418;-76
2021/06/15 12:13:00;;;;;;;4.10;3.80;;;32.80;78.70;;;;;;5028282;28;20205;-77
2021/06/15 12:15:37;;;;;;;4.47;3.80;;;33.50;78.70;;;;;;5024348;28;20425;-75
2021/06/15 12:18:30;;;;;;;4.38;3.97;;;34.50;75.30;;;;;;5027334;28;20209;-77
2021/06/15 12:21:01;;;;;;;4.95;3.50;;;35.10;72.60;;;;;;5026452;28;20272;-76
2021/06/15 12:23:51;;;;;;;3.72;3.53;;;35.50;67.60;;;;;;5029901;28;20183;-76
2021/06/15 12:26:29;;;;;;;5.78;4.10;;;35.50;68.30;;;;;;5024933;28;20564;-77
2021/06/15 12:29:01;;;;;;;4.40;4.00;;;36.00;67.90;;;;;;5025628;28;20301;-76
2021/06/15 12:31:32;;;;;;;4.00;3.63;;;36.30;65.90;;;;;;5021842;28;20201;-75
2021/06/15 12:33:59;;;;;;;4.15;3.85;;;37.00;66.20;;;;;;5029011;28;20540;-77
2021/06/15 12:36:33;;;;;;;4.97;4.25;;;37.80;61.40;;;;;;5020107;28;20171;-77
2021/06/15 12:39:12;;;;;;;4.00;3.70;;;38.30;59.00;;;;;;5025634;28;20210;-76
2021/06/15 12:41:41;;;;;;;4.20;3.90;;;38.30;57.80;;;;;;5047742;28;20207;-77
2021/06/15 12:44:08;;;;;;;4.50;4.20;;;37.70;59.80;;;;;;5020195;28;20179;-76
2021/06/15 12:46:35;;;;;;;4.55;3.47;;;37.80;54.20;;;;;;5026153;28;20174;-78
2021/06/15 12:49:23;;;;;;;4.28;3.80;;;37.50;54.90;;;;;;5025366;28;20198;-77
2021/06/15 12:51:58;;;;;;;4.40;4.00;;;37.30;54.30;;;;;;5033314;28;20179;-77
2021/06/15 12:54:32;;;;;;;3.20;3.00;;;37.30;56.20;;;;;;5026951;28;20688;-77
2021/06/15 12:57:11;;;;;;;4.57;4.07;;;37.00;55.80;;;;;;5026754;28;20174;-78
2021/06/15 12:59:42;;;;;;;4.03;3.53;;;37.70;56.50;;;;;;5019890;28;20198;-77
2021/06/15 13:02:18;;;;;;;3.80;3.50;;;38.10;55.30;;;;;;5027359;28;20285;-77